sensor_id;sensor_type;location;lat;lon;timestamp;P1;durP1;ratioP1;P2;durP2;ratioP2
60243;SDS011;46106;51.468;5.814;2023-05-10T00:00:54;74.05;;;18.50;;
60243;SDS011;46106;51.468;5.814;2023-05-10T00:03:20;69.57;;;17.33;;
60243;SDS011;46106;51.468;5.814;2023-05-10T00:05:45;77.32;;;16.98;;
60243;SDS011;46106;51.468;5.814;2023-05-10T00:08:10;70.25;;;17.63;;
60243;SDS011;46106;51.468;5.814;2023-05-10T00:10:36;65.40;;;16.92;;
60243;SDS011;46106;51.468;5.814;2023-05-10T00:13:02;65.30;;;15.73;;
60243;SDS011;46106;51.468;5.814;2023-05-10T00:15:28;73.28;;;16.77;;
60243;SDS011;46106;51.468;5.814;2023-05-10T00:17:55;62.28;;;16.73;;
60243;SDS011;46106;51.468;5.814;2023-05-10T00:20:21;78.85;;;18.73;;
60243;SDS011;46106;51.468;5.814;2023-05-10T00:22:46;66.70;;;15.98;;
60243;SDS011;46106;51.468;5.814;2023-05-10T00:25:12;70.85;;;18.52;;
60243;SDS011;46106;51.468;5.814;2023-05-10T00:27:37;67.00;;;18.17;;
60243;SDS011;46106;51.468;5.814;2023-05-10T00:30:03;71.53;;;17.85;;
60243;SDS011;46106;51.468;5.814;2023-05-10T00:32:29;62.60;;;18.05;;
60243;SDS011;46106;51.468;5.814;2023-05-10T00:34:54;65.18;;;18.60;;
60243;SDS011;46106;51.468;5.814;2023-05-10T00:37:20;69.85;;;18.48;;
60243;SDS011;46106;51.468;5.814;2023-05-10T00:39:45;73.20;;;18.90;;
60243;SDS011;46106;51.468;5.814;2023-05-10T00:42:11;76.53;;;18.95;;
60243;SDS011;46106;51.468;5.814;2023-05-10T00:44:36;76.97;;;20.13;;
60243;SDS011;46106;51.468;5.814;2023-05-10T00:47:02;71.20;;;20.02;;
60243;SDS011;46106;51.468;5.814;2023-05-10T00:49:27;73.90;;;20.10;;
60243;SDS011;46106;51.468;5.814;2023-05-10T00:51:53;75.38;;;18.25;;
60243;SDS011;46106;51.468;5.814;2023-05-10T00:54:19;68.18;;;18.75;;
60243;SDS011;46106;51.468;5.814;2023-05-10T00:56:45;76.68;;;19.80;;
60243;SDS011;46106;51.468;5.814;2023-05-10T00:59:14;79.95;;;20.55;;
60243;SDS011;46106;51.468;5.814;2023-05-10T01:01:41;63.75;;;18.55;;
60243;SDS011;46106;51.468;5.814;2023-05-10T01:04:07;76.93;;;19.75;;
60243;SDS011;46106;51.468;5.814;2023-05-10T01:06:35;70.22;;;19.70;;
60243;SDS011;46106;51.468;5.814;2023-05-10T01:09:00;61.22;;;18.60;;
60243;SDS011;46106;51.468;5.814;2023-05-10T01:11:26;91.13;;;21.65;;
60243;SDS011;46106;51.468;5.814;2023-05-10T01:13:52;78.43;;;21.40;;
60243;SDS011;46106;51.468;5.814;2023-05-10T01:16:22;93.70;;;23.33;;
60243;SDS011;46106;51.468;5.814;2023-05-10T01:18:51;99.82;;;24.08;;
60243;SDS011;46106;51.468;5.814;2023-05-10T01:21:38;107.38;;;26.65;;
60243;SDS011;46106;51.468;5.814;2023-05-10T01:24:50;104.38;;;26.73;;
60243;SDS011;46106;51.468;5.814;2023-05-10T01:36:32;128.97;;;28.27;;
60243;SDS011;46106;51.468;5.814;2023-05-10T01:47:07;116.18;;;28.38;;
60243;SDS011;46106;51.468;5.814;2023-05-10T01:49:57;146.65;;;32.10;;
60243;SDS011;46106;51.468;5.814;2023-05-10T01:52:30;134.95;;;31.02;;
60243;SDS011;46106;51.468;5.814;2023-05-10T01:55:07;165.77;;;32.40;;
60243;SDS011;46106;51.468;5.814;2023-05-10T01:57:36;154.40;;;31.35;;
60243;SDS011;46106;51.468;5.814;2023-05-10T02:00:07;166.48;;;32.10;;
60243;SDS011;46106;51.468;5.814;2023-05-10T02:02:38;159.45;;;35.53;;
60243;SDS011;46106;51.468;5.814;2023-05-10T02:05:07;177.25;;;36.42;;
60243;SDS011;46106;51.468;5.814;2023-05-10T02:07:35;158.77;;;36.50;;
60243;SDS011;46106;51.468;5.814;2023-05-10T02:10:02;171.13;;;35.97;;
60243;SDS011;46106;51.468;5.814;2023-05-10T02:12:29;181.07;;;36.58;;
60243;SDS011;46106;51.468;5.814;2023-05-10T02:14:57;149.35;;;35.17;;
60243;SDS011;46106;51.468;5.814;2023-05-10T02:17:27;161.40;;;35.28;;
60243;SDS011;46106;51.468;5.814;2023-05-10T02:19:53;143.43;;;37.42;;
60243;SDS011;46106;51.468;5.814;2023-05-10T02:22:21;156.93;;;36.83;;
60243;SDS011;46106;51.468;5.814;2023-05-10T02:24:48;180.43;;;36.90;;
60243;SDS011;46106;51.468;5.814;2023-05-10T02:27:15;157.77;;;36.47;;
60243;SDS011;46106;51.468;5.814;2023-05-10T02:29:42;139.25;;;35.55;;
60243;SDS011;46106;51.468;5.814;2023-05-10T02:32:09;146.77;;;37.08;;
60243;SDS011;46106;51.468;5.814;2023-05-10T02:34:35;134.10;;;33.85;;
60243;SDS011;46106;51.468;5.814;2023-05-10T02:37:02;144.27;;;35.38;;
60243;SDS011;46106;51.468;5.814;2023-05-10T02:39:28;127.38;;;35.40;;
60243;SDS011;46106;51.468;5.814;2023-05-10T02:41:56;124.95;;;35.72;;
60243;SDS011;46106;51.468;5.814;2023-05-10T02:44:22;137.60;;;35.05;;
60243;SDS011;46106;51.468;5.814;2023-05-10T02:46:51;123.25;;;35.28;;
60243;SDS011;46106;51.468;5.814;2023-05-10T02:49:17;160.63;;;38.08;;
60243;SDS011;46106;51.468;5.814;2023-05-10T02:51:44;131.23;;;37.83;;
60243;SDS011;46106;51.468;5.814;2023-05-10T02:54:19;131.75;;;36.72;;
60243;SDS011;46106;51.468;5.814;2023-05-10T02:56:50;121.53;;;37.10;;
60243;SDS011;46106;51.468;5.814;2023-05-10T02:59:18;127.57;;;38.55;;
60243;SDS011;46106;51.468;5.814;2023-05-10T03:01:44;132.98;;;39.58;;
60243;SDS011;46106;51.468;5.814;2023-05-10T03:04:13;125.60;;;38.67;;
60243;SDS011;46106;51.468;5.814;2023-05-10T03:06:38;128.45;;;38.20;;
60243;SDS011;46106;51.468;5.814;2023-05-10T03:09:04;119.05;;;39.00;;
60243;SDS011;46106;51.468;5.814;2023-05-10T03:17:29;121.07;;;36.67;;
60243;SDS011;46106;51.468;5.814;2023-05-10T03:20:03;126.22;;;38.75;;
60243;SDS011;46106;51.468;5.814;2023-05-10T03:22:34;134.77;;;38.17;;
60243;SDS011;46106;51.468;5.814;2023-05-10T03:25:04;128.27;;;38.72;;
60243;SDS011;46106;51.468;5.814;2023-05-10T03:27:31;145.88;;;38.70;;
60243;SDS011;46106;51.468;5.814;2023-05-10T03:29:57;126.07;;;37.70;;
60243;SDS011;46106;51.468;5.814;2023-05-10T03:32:23;124.50;;;37.42;;
60243;SDS011;46106;51.468;5.814;2023-05-10T03:34:49;129.02;;;39.10;;
60243;SDS011;46106;51.468;5.814;2023-05-10T03:37:15;149.65;;;40.58;;
60243;SDS011;46106;51.468;5.814;2023-05-10T03:39:40;147.80;;;41.33;;
60243;SDS011;46106;51.468;5.814;2023-05-10T03:42:06;136.63;;;42.20;;
60243;SDS011;46106;51.468;5.814;2023-05-10T03:44:31;133.25;;;40.53;;
60243;SDS011;46106;51.468;5.814;2023-05-10T03:46:58;121.43;;;39.13;;
60243;SDS011;46106;51.468;5.814;2023-05-10T03:49:24;128.57;;;40.22;;
60243;SDS011;46106;51.468;5.814;2023-05-10T03:51:50;132.93;;;39.97;;
60243;SDS011;46106;51.468;5.814;2023-05-10T03:54:15;116.88;;;40.20;;
60243;SDS011;46106;51.468;5.814;2023-05-10T03:56:40;117.05;;;39.05;;
60243;SDS011;46106;51.468;5.814;2023-05-10T03:59:06;124.72;;;40.95;;
60243;SDS011;46106;51.468;5.814;2023-05-10T04:01:33;132.70;;;41.80;;
60243;SDS011;46106;51.468;5.814;2023-05-10T04:03:59;130.25;;;40.05;;
60243;SDS011;46106;51.468;5.814;2023-05-10T04:06:24;128.65;;;39.75;;
60243;SDS011;46106;51.468;5.814;2023-05-10T04:08:50;135.77;;;39.58;;
60243;SDS011;46106;51.468;5.814;2023-05-10T04:11:15;131.10;;;39.70;;
60243;SDS011;46106;51.468;5.814;2023-05-10T04:13:41;128.18;;;39.65;;
60243;SDS011;46106;51.468;5.814;2023-05-10T04:16:08;139.63;;;42.17;;
60243;SDS011;46106;51.468;5.814;2023-05-10T04:18:34;149.43;;;41.42;;
60243;SDS011;46106;51.468;5.814;2023-05-10T04:21:00;118.70;;;38.30;;
60243;SDS011;46106;51.468;5.814;2023-05-10T04:23:29;137.05;;;39.50;;
60243;SDS011;46106;51.468;5.814;2023-05-10T04:26:01;144.43;;;41.15;;
60243;SDS011;46106;51.468;5.814;2023-05-10T04:28:27;121.68;;;38.83;;
60243;SDS011;46106;51.468;5.814;2023-05-10T04:30:53;124.35;;;38.35;;
60243;SDS011;46106;51.468;5.814;2023-05-10T04:33:28;114.72;;;38.40;;
60243;SDS011;46106;51.468;5.814;2023-05-10T04:35:53;154.88;;;38.63;;
60243;SDS011;46106;51.468;5.814;2023-05-10T04:38:19;144.98;;;39.00;;
60243;SDS011;46106;51.468;5.814;2023-05-10T04:40:44;124.50;;;37.85;;
60243;SDS011;46106;51.468;5.814;2023-05-10T04:43:13;126.07;;;38.58;;
60243;SDS011;46106;51.468;5.814;2023-05-10T04:45:39;121.63;;;38.05;;
60243;SDS011;46106;51.468;5.814;2023-05-10T04:48:04;128.05;;;38.30;;
60243;SDS011;46106;51.468;5.814;2023-05-10T04:50:30;132.65;;;36.42;;
60243;SDS011;46106;51.468;5.814;2023-05-10T04:52:56;133.88;;;37.35;;
60243;SDS011;46106;51.468;5.814;2023-05-10T04:55:22;140.30;;;38.72;;
60243;SDS011;46106;51.468;5.814;2023-05-10T04:57:48;147.23;;;39.40;;
60243;SDS011;46106;51.468;5.814;2023-05-10T05:00:14;146.90;;;38.22;;
60243;SDS011;46106;51.468;5.814;2023-05-10T05:02:43;135.05;;;38.72;;
60243;SDS011;46106;51.468;5.814;2023-05-10T05:05:12;130.48;;;36.70;;
60243;SDS011;46106;51.468;5.814;2023-05-10T05:07:38;145.07;;;38.03;;
60243;SDS011;46106;51.468;5.814;2023-05-10T05:25:34;183.35;;;46.33;;
60243;SDS011;46106;51.468;5.814;2023-05-10T05:33:09;186.25;;;46.58;;
60243;SDS011;46106;51.468;5.814;2023-05-10T05:45:58;159.90;;;44.15;;
60243;SDS011;46106;51.468;5.814;2023-05-10T05:48:23;149.57;;;41.00;;
60243;SDS011;46106;51.468;5.814;2023-05-10T05:50:55;149.32;;;41.50;;
60243;SDS011;46106;51.468;5.814;2023-05-10T05:53:21;133.77;;;40.13;;
60243;SDS011;46106;51.468;5.814;2023-05-10T05:55:54;117.45;;;38.28;;
60243;SDS011;46106;51.468;5.814;2023-05-10T05:58:30;141.63;;;39.85;;
60243;SDS011;46106;51.468;5.814;2023-05-10T06:00:55;105.60;;;35.75;;
60243;SDS011;46106;51.468;5.814;2023-05-10T06:03:21;122.50;;;37.30;;
60243;SDS011;46106;51.468;5.814;2023-05-10T06:05:47;124.53;;;38.95;;
60243;SDS011;46106;51.468;5.814;2023-05-10T06:08:12;114.55;;;37.20;;
60243;SDS011;46106;51.468;5.814;2023-05-10T06:10:39;115.53;;;36.67;;
60243;SDS011;46106;51.468;5.814;2023-05-10T06:13:05;105.50;;;36.83;;
60243;SDS011;46106;51.468;5.814;2023-05-10T06:15:31;103.00;;;35.70;;
60243;SDS011;46106;51.468;5.814;2023-05-10T06:17:57;110.55;;;37.63;;
60243;SDS011;46106;51.468;5.814;2023-05-10T06:20:23;95.55;;;35.33;;
60243;SDS011;46106;51.468;5.814;2023-05-10T06:22:48;117.65;;;36.65;;
60243;SDS011;46106;51.468;5.814;2023-05-10T06:25:14;122.80;;;36.75;;
60243;SDS011;46106;51.468;5.814;2023-05-10T06:27:39;82.57;;;31.73;;
60243;SDS011;46106;51.468;5.814;2023-05-10T06:30:05;77.45;;;29.38;;
60243;SDS011;46106;51.468;5.814;2023-05-10T06:32:31;86.65;;;31.35;;
60243;SDS011;46106;51.468;5.814;2023-05-10T06:34:56;89.43;;;31.48;;
60243;SDS011;46106;51.468;5.814;2023-05-10T06:37:22;79.65;;;29.35;;
60243;SDS011;46106;51.468;5.814;2023-05-10T06:39:47;79.18;;;29.65;;
60243;SDS011;46106;51.468;5.814;2023-05-10T06:42:13;66.10;;;25.95;;
60243;SDS011;46106;51.468;5.814;2023-05-10T06:44:39;69.20;;;25.73;;
60243;SDS011;46106;51.468;5.814;2023-05-10T06:47:04;53.40;;;24.25;;
60243;SDS011;46106;51.468;5.814;2023-05-10T06:49:29;63.55;;;25.30;;
60243;SDS011;46106;51.468;5.814;2023-05-10T06:51:55;63.13;;;24.65;;
60243;SDS011;46106;51.468;5.814;2023-05-10T06:54:21;54.13;;;24.83;;
60243;SDS011;46106;51.468;5.814;2023-05-10T06:56:46;62.20;;;24.52;;
60243;SDS011;46106;51.468;5.814;2023-05-10T06:59:12;61.03;;;26.02;;
60243;SDS011;46106;51.468;5.814;2023-05-10T07:01:38;55.58;;;24.05;;
60243;SDS011;46106;51.468;5.814;2023-05-10T07:04:04;56.08;;;23.60;;
60243;SDS011;46106;51.468;5.814;2023-05-10T07:06:30;59.08;;;23.50;;
60243;SDS011;46106;51.468;5.814;2023-05-10T07:08:55;55.75;;;22.80;;
60243;SDS011;46106;51.468;5.814;2023-05-10T07:11:21;59.38;;;24.90;;
60243;SDS011;46106;51.468;5.814;2023-05-10T07:13:46;59.10;;;23.25;;
60243;SDS011;46106;51.468;5.814;2023-05-10T07:16:12;59.65;;;24.63;;
60243;SDS011;46106;51.468;5.814;2023-05-10T07:18:37;56.47;;;23.27;;
60243;SDS011;46106;51.468;5.814;2023-05-10T07:21:03;57.22;;;22.88;;
60243;SDS011;46106;51.468;5.814;2023-05-10T07:23:28;53.97;;;24.98;;
60243;SDS011;46106;51.468;5.814;2023-05-10T07:25:55;57.72;;;24.25;;
60243;SDS011;46106;51.468;5.814;2023-05-10T07:28:22;51.90;;;23.25;;
60243;SDS011;46106;51.468;5.814;2023-05-10T07:30:52;70.45;;;26.27;;
60243;SDS011;46106;51.468;5.814;2023-05-10T07:33:17;62.25;;;25.77;;
60243;SDS011;46106;51.468;5.814;2023-05-10T07:35:43;60.67;;;25.20;;
60243;SDS011;46106;51.468;5.814;2023-05-10T07:38:08;66.57;;;25.10;;
60243;SDS011;46106;51.468;5.814;2023-05-10T07:40:36;55.10;;;24.30;;
60243;SDS011;46106;51.468;5.814;2023-05-10T07:43:02;54.10;;;23.38;;
60243;SDS011;46106;51.468;5.814;2023-05-10T07:45:27;58.88;;;25.20;;
60243;SDS011;46106;51.468;5.814;2023-05-10T07:47:53;54.97;;;24.10;;
60243;SDS011;46106;51.468;5.814;2023-05-10T07:50:19;65.63;;;25.83;;
60243;SDS011;46106;51.468;5.814;2023-05-10T07:52:46;68.80;;;26.10;;
60243;SDS011;46106;51.468;5.814;2023-05-10T07:55:11;56.72;;;26.55;;
60243;SDS011;46106;51.468;5.814;2023-05-10T07:57:37;55.42;;;26.38;;
60243;SDS011;46106;51.468;5.814;2023-05-10T08:00:03;68.20;;;27.73;;
60243;SDS011;46106;51.468;5.814;2023-05-10T08:02:29;60.42;;;26.00;;
60243;SDS011;46106;51.468;5.814;2023-05-10T08:04:55;60.35;;;26.30;;
60243;SDS011;46106;51.468;5.814;2023-05-10T08:07:21;59.05;;;27.17;;
60243;SDS011;46106;51.468;5.814;2023-05-10T08:09:46;61.17;;;26.00;;
60243;SDS011;46106;51.468;5.814;2023-05-10T08:12:12;69.38;;;29.58;;
60243;SDS011;46106;51.468;5.814;2023-05-10T08:14:37;58.17;;;27.10;;
60243;SDS011;46106;51.468;5.814;2023-05-10T08:17:03;65.03;;;27.10;;
60243;SDS011;46106;51.468;5.814;2023-05-10T08:19:28;59.08;;;27.80;;
60243;SDS011;46106;51.468;5.814;2023-05-10T08:21:54;63.45;;;27.13;;
60243;SDS011;46106;51.468;5.814;2023-05-10T08:24:21;56.97;;;26.42;;
60243;SDS011;46106;51.468;5.814;2023-05-10T08:26:47;55.22;;;27.20;;
60243;SDS011;46106;51.468;5.814;2023-05-10T08:29:13;54.85;;;25.25;;
60243;SDS011;46106;51.468;5.814;2023-05-10T08:31:38;62.28;;;27.02;;
60243;SDS011;46106;51.468;5.814;2023-05-10T08:34:04;52.90;;;26.33;;
60243;SDS011;46106;51.468;5.814;2023-05-10T08:36:30;54.03;;;25.73;;
60243;SDS011;46106;51.468;5.814;2023-05-10T08:38:57;52.00;;;26.02;;
60243;SDS011;46106;51.468;5.814;2023-05-10T08:41:23;58.08;;;26.88;;
60243;SDS011;46106;51.468;5.814;2023-05-10T08:43:51;54.47;;;25.75;;
60243;SDS011;46106;51.468;5.814;2023-05-10T08:46:19;55.00;;;24.95;;
60243;SDS011;46106;51.468;5.814;2023-05-10T08:48:45;55.22;;;24.35;;
60243;SDS011;46106;51.468;5.814;2023-05-10T08:51:13;62.80;;;26.30;;
60243;SDS011;46106;51.468;5.814;2023-05-10T08:53:39;54.58;;;25.40;;
60243;SDS011;46106;51.468;5.814;2023-05-10T08:56:05;52.83;;;24.83;;
60243;SDS011;46106;51.468;5.814;2023-05-10T08:58:31;53.60;;;21.48;;
60243;SDS011;46106;51.468;5.814;2023-05-10T09:00:57;38.65;;;18.58;;
60243;SDS011;46106;51.468;5.814;2023-05-10T09:03:24;33.40;;;16.92;;
60243;SDS011;46106;51.468;5.814;2023-05-10T09:05:50;42.97;;;16.92;;
60243;SDS011;46106;51.468;5.814;2023-05-10T09:08:15;26.55;;;14.63;;
60243;SDS011;46106;51.468;5.814;2023-05-10T09:10:45;25.40;;;14.10;;
60243;SDS011;46106;51.468;5.814;2023-05-10T09:13:12;22.58;;;12.73;;
60243;SDS011;46106;51.468;5.814;2023-05-10T09:15:39;23.92;;;13.15;;
60243;SDS011;46106;51.468;5.814;2023-05-10T09:18:05;25.73;;;12.93;;
60243;SDS011;46106;51.468;5.814;2023-05-10T09:20:30;26.27;;;12.98;;
60243;SDS011;46106;51.468;5.814;2023-05-10T09:22:56;26.08;;;12.52;;
60243;SDS011;46106;51.468;5.814;2023-05-10T09:25:21;21.73;;;12.05;;
60243;SDS011;46106;51.468;5.814;2023-05-10T09:27:47;17.58;;;10.57;;
60243;SDS011;46106;51.468;5.814;2023-05-10T09:30:26;20.95;;;10.52;;
60243;SDS011;46106;51.468;5.814;2023-05-10T09:32:53;20.40;;;10.32;;
60243;SDS011;46106;51.468;5.814;2023-05-10T09:35:20;16.15;;;9.55;;
60243;SDS011;46106;51.468;5.814;2023-05-10T09:37:52;21.45;;;8.68;;
60243;SDS011;46106;51.468;5.814;2023-05-10T09:40:25;15.63;;;8.55;;
60243;SDS011;46106;51.468;5.814;2023-05-10T09:42:58;19.08;;;9.20;;
60243;SDS011;46106;51.468;5.814;2023-05-10T09:45:29;15.75;;;9.93;;
60243;SDS011;46106;51.468;5.814;2023-05-10T09:47:56;20.65;;;10.20;;
60243;SDS011;46106;51.468;5.814;2023-05-10T09:50:23;16.13;;;9.25;;
60243;SDS011;46106;51.468;5.814;2023-05-10T09:52:50;18.20;;;9.15;;
60243;SDS011;46106;51.468;5.814;2023-05-10T09:55:20;18.55;;;10.30;;
60243;SDS011;46106;51.468;5.814;2023-05-10T09:57:47;20.80;;;10.00;;
60243;SDS011;46106;51.468;5.814;2023-05-10T10:00:19;14.20;;;8.93;;
60243;SDS011;46106;51.468;5.814;2023-05-10T10:02:54;19.95;;;10.77;;
60243;SDS011;46106;51.468;5.814;2023-05-10T10:05:21;18.75;;;9.63;;
60243;SDS011;46106;51.468;5.814;2023-05-10T10:07:53;16.58;;;9.32;;
60243;SDS011;46106;51.468;5.814;2023-05-10T10:10:19;17.55;;;8.43;;
60243;SDS011;46106;51.468;5.814;2023-05-10T10:12:46;17.27;;;9.10;;
60243;SDS011;46106;51.468;5.814;2023-05-10T10:15:11;15.60;;;8.13;;
60243;SDS011;46106;51.468;5.814;2023-05-10T10:17:37;19.38;;;9.07;;
60243;SDS011;46106;51.468;5.814;2023-05-10T10:20:04;20.25;;;8.77;;
60243;SDS011;46106;51.468;5.814;2023-05-10T10:22:30;16.25;;;8.70;;
60243;SDS011;46106;51.468;5.814;2023-05-10T10:24:55;16.30;;;9.05;;
60243;SDS011;46106;51.468;5.814;2023-05-10T10:27:36;14.32;;;8.88;;
60243;SDS011;46106;51.468;5.814;2023-05-10T10:35:31;18.38;;;10.38;;
60243;SDS011;46106;51.468;5.814;2023-05-10T10:37:58;19.35;;;10.10;;
60243;SDS011;46106;51.468;5.814;2023-05-10T10:40:30;19.70;;;10.95;;
60243;SDS011;46106;51.468;5.814;2023-05-10T10:42:58;17.63;;;10.60;;
60243;SDS011;46106;51.468;5.814;2023-05-10T10:46:09;14.98;;;9.10;;
60243;SDS011;46106;51.468;5.814;2023-05-10T10:48:36;15.52;;;9.98;;
60243;SDS011;46106;51.468;5.814;2023-05-10T10:51:02;13.93;;;10.45;;
60243;SDS011;46106;51.468;5.814;2023-05-10T10:53:28;18.55;;;10.40;;
60243;SDS011;46106;51.468;5.814;2023-05-10T10:56:06;18.05;;;11.50;;
60243;SDS011;46106;51.468;5.814;2023-05-10T10:58:34;17.50;;;10.60;;
60243;SDS011;46106;51.468;5.814;2023-05-10T11:14:02;11.73;;;8.75;;
60243;SDS011;46106;51.468;5.814;2023-05-10T11:29:24;18.00;;;9.63;;
60243;SDS011;46106;51.468;5.814;2023-05-10T11:32:00;13.07;;;7.13;;
60243;SDS011;46106;51.468;5.814;2023-05-10T11:34:26;10.07;;;7.15;;
60243;SDS011;46106;51.468;5.814;2023-05-10T11:36:55;8.25;;;6.38;;
60243;SDS011;46106;51.468;5.814;2023-05-10T11:39:21;9.77;;;6.80;;
60243;SDS011;46106;51.468;5.814;2023-05-10T11:41:51;10.38;;;6.60;;
60243;SDS011;46106;51.468;5.814;2023-05-10T11:44:16;12.90;;;8.52;;
60243;SDS011;46106;51.468;5.814;2023-05-10T11:46:42;11.50;;;8.90;;
60243;SDS011;46106;51.468;5.814;2023-05-10T11:49:08;14.98;;;9.48;;
60243;SDS011;46106;51.468;5.814;2023-05-10T11:51:34;13.55;;;9.27;;
60243;SDS011;46106;51.468;5.814;2023-05-10T11:54:08;17.67;;;11.57;;
60243;SDS011;46106;51.468;5.814;2023-05-10T11:56:39;21.98;;;13.27;;
60243;SDS011;46106;51.468;5.814;2023-05-10T11:59:05;23.30;;;14.05;;
60243;SDS011;46106;51.468;5.814;2023-05-10T12:01:31;23.63;;;13.82;;
60243;SDS011;46106;51.468;5.814;2023-05-10T12:03:57;21.25;;;13.57;;
60243;SDS011;46106;51.468;5.814;2023-05-10T12:06:28;23.02;;;13.82;;
60243;SDS011;46106;51.468;5.814;2023-05-10T12:08:56;20.92;;;14.05;;
60243;SDS011;46106;51.468;5.814;2023-05-10T12:11:24;20.85;;;12.95;;
60243;SDS011;46106;51.468;5.814;2023-05-10T12:13:50;20.98;;;13.82;;
60243;SDS011;46106;51.468;5.814;2023-05-10T12:16:18;22.90;;;12.57;;
60243;SDS011;46106;51.468;5.814;2023-05-10T12:18:51;17.63;;;11.95;;
60243;SDS011;46106;51.468;5.814;2023-05-10T12:21:18;20.85;;;11.35;;
60243;SDS011;46106;51.468;5.814;2023-05-10T12:23:45;17.98;;;11.93;;
60243;SDS011;46106;51.468;5.814;2023-05-10T12:26:12;18.52;;;12.02;;
60243;SDS011;46106;51.468;5.814;2023-05-10T12:28:38;24.50;;;14.80;;
60243;SDS011;46106;51.468;5.814;2023-05-10T12:31:06;21.48;;;13.73;;
60243;SDS011;46106;51.468;5.814;2023-05-10T12:33:39;28.52;;;14.02;;
60243;SDS011;46106;51.468;5.814;2023-05-10T12:36:08;22.25;;;13.80;;
60243;SDS011;46106;51.468;5.814;2023-05-10T12:38:34;22.00;;;15.15;;
60243;SDS011;46106;51.468;5.814;2023-05-10T12:41:04;24.75;;;15.23;;
60243;SDS011;46106;51.468;5.814;2023-05-10T12:43:31;27.20;;;16.30;;
60243;SDS011;46106;51.468;5.814;2023-05-10T12:45:57;28.20;;;17.15;;
60243;SDS011;46106;51.468;5.814;2023-05-10T12:48:23;29.67;;;17.35;;
60243;SDS011;46106;51.468;5.814;2023-05-10T12:50:49;28.15;;;18.13;;
60243;SDS011;46106;51.468;5.814;2023-05-10T12:53:14;26.60;;;14.82;;
60243;SDS011;46106;51.468;5.814;2023-05-10T12:55:41;25.40;;;15.63;;
60243;SDS011;46106;51.468;5.814;2023-05-10T12:58:07;24.38;;;14.73;;
60243;SDS011;46106;51.468;5.814;2023-05-10T13:00:32;21.13;;;13.55;;
60243;SDS011;46106;51.468;5.814;2023-05-10T13:02:58;20.65;;;12.30;;
60243;SDS011;46106;51.468;5.814;2023-05-10T13:05:24;15.18;;;10.80;;
60243;SDS011;46106;51.468;5.814;2023-05-10T13:07:49;16.40;;;10.98;;
60243;SDS011;46106;51.468;5.814;2023-05-10T13:10:15;19.02;;;11.90;;
60243;SDS011;46106;51.468;5.814;2023-05-10T13:12:41;22.77;;;13.40;;
60243;SDS011;46106;51.468;5.814;2023-05-10T13:15:06;21.50;;;12.88;;
60243;SDS011;46106;51.468;5.814;2023-05-10T13:17:32;20.63;;;12.35;;
60243;SDS011;46106;51.468;5.814;2023-05-10T13:19:58;18.60;;;11.98;;
60243;SDS011;46106;51.468;5.814;2023-05-10T13:22:23;30.35;;;12.90;;
60243;SDS011;46106;51.468;5.814;2023-05-10T13:24:49;18.23;;;11.95;;
60243;SDS011;46106;51.468;5.814;2023-05-10T13:27:15;20.17;;;12.32;;
60243;SDS011;46106;51.468;5.814;2023-05-10T13:29:40;22.30;;;13.10;;
60243;SDS011;46106;51.468;5.814;2023-05-10T13:32:06;21.52;;;13.60;;
60243;SDS011;46106;51.468;5.814;2023-05-10T13:34:31;25.70;;;14.13;;
60243;SDS011;46106;51.468;5.814;2023-05-10T13:36:57;32.78;;;15.63;;
60243;SDS011;46106;51.468;5.814;2023-05-10T13:39:22;25.15;;;16.48;;
60243;SDS011;46106;51.468;5.814;2023-05-10T13:41:48;31.92;;;17.20;;
60243;SDS011;46106;51.468;5.814;2023-05-10T13:44:14;26.00;;;16.05;;
60243;SDS011;46106;51.468;5.814;2023-05-10T13:46:40;32.30;;;17.58;;
60243;SDS011;46106;51.468;5.814;2023-05-10T13:49:08;27.67;;;17.45;;
60243;SDS011;46106;51.468;5.814;2023-05-10T13:51:34;28.02;;;16.70;;
60243;SDS011;46106;51.468;5.814;2023-05-10T13:54:00;24.38;;;15.68;;
60243;SDS011;46106;51.468;5.814;2023-05-10T13:56:29;27.40;;;16.40;;
60243;SDS011;46106;51.468;5.814;2023-05-10T13:58:55;25.15;;;16.02;;
60243;SDS011;46106;51.468;5.814;2023-05-10T14:01:22;25.48;;;15.10;;
60243;SDS011;46106;51.468;5.814;2023-05-10T14:03:48;22.83;;;14.55;;
60243;SDS011;46106;51.468;5.814;2023-05-10T14:06:13;23.55;;;15.20;;
60243;SDS011;46106;51.468;5.814;2023-05-10T14:08:39;30.15;;;17.10;;
60243;SDS011;46106;51.468;5.814;2023-05-10T14:11:05;18.25;;;12.73;;
60243;SDS011;46106;51.468;5.814;2023-05-10T14:13:30;15.05;;;11.57;;
60243;SDS011;46106;51.468;5.814;2023-05-10T14:15:56;16.17;;;11.25;;
60243;SDS011;46106;51.468;5.814;2023-05-10T14:18:22;14.70;;;11.45;;
60243;SDS011;46106;51.468;5.814;2023-05-10T14:20:47;12.48;;;10.38;;
60243;SDS011;46106;51.468;5.814;2023-05-10T14:23:12;11.25;;;9.90;;
60243;SDS011;46106;51.468;5.814;2023-05-10T14:25:41;13.90;;;10.90;;
60243;SDS011;46106;51.468;5.814;2023-05-10T14:28:07;12.38;;;9.80;;
60243;SDS011;46106;51.468;5.814;2023-05-10T14:30:33;10.00;;;8.98;;
60243;SDS011;46106;51.468;5.814;2023-05-10T14:32:59;11.77;;;9.18;;
60243;SDS011;46106;51.468;5.814;2023-05-10T14:35:28;12.73;;;10.10;;
60243;SDS011;46106;51.468;5.814;2023-05-10T14:37:55;15.20;;;9.70;;
60243;SDS011;46106;51.468;5.814;2023-05-10T14:40:21;15.82;;;10.90;;
60243;SDS011;46106;51.468;5.814;2023-05-10T14:42:47;16.58;;;11.38;;
60243;SDS011;46106;51.468;5.814;2023-05-10T14:45:13;15.23;;;11.10;;
60243;SDS011;46106;51.468;5.814;2023-05-10T14:47:38;15.18;;;11.80;;
60243;SDS011;46106;51.468;5.814;2023-05-10T14:50:04;19.38;;;14.15;;
60243;SDS011;46106;51.468;5.814;2023-05-10T14:52:30;22.77;;;15.63;;
60243;SDS011;46106;51.468;5.814;2023-05-10T14:54:56;26.70;;;15.32;;
60243;SDS011;46106;51.468;5.814;2023-05-10T14:57:24;25.15;;;15.07;;
60243;SDS011;46106;51.468;5.814;2023-05-10T14:59:49;30.98;;;17.85;;
60243;SDS011;46106;51.468;5.814;2023-05-10T15:02:15;30.63;;;17.23;;
60243;SDS011;46106;51.468;5.814;2023-05-10T15:04:41;25.23;;;16.75;;
60243;SDS011;46106;51.468;5.814;2023-05-10T15:07:06;32.53;;;20.05;;
60243;SDS011;46106;51.468;5.814;2023-05-10T15:09:32;30.88;;;18.02;;
60243;SDS011;46106;51.468;5.814;2023-05-10T15:11:57;33.70;;;19.40;;
60243;SDS011;46106;51.468;5.814;2023-05-10T15:14:23;30.20;;;19.98;;
60243;SDS011;46106;51.468;5.814;2023-05-10T15:16:48;29.30;;;18.65;;
60243;SDS011;46106;51.468;5.814;2023-05-10T15:19:14;30.13;;;17.98;;
60243;SDS011;46106;51.468;5.814;2023-05-10T15:21:40;30.90;;;16.77;;
60243;SDS011;46106;51.468;5.814;2023-05-10T15:24:07;23.08;;;13.95;;
60243;SDS011;46106;51.468;5.814;2023-05-10T15:26:33;26.77;;;15.55;;
60243;SDS011;46106;51.468;5.814;2023-05-10T15:28:59;30.25;;;16.10;;
60243;SDS011;46106;51.468;5.814;2023-05-10T15:31:24;31.73;;;16.98;;
60243;SDS011;46106;51.468;5.814;2023-05-10T15:33:50;29.27;;;17.23;;
60243;SDS011;46106;51.468;5.814;2023-05-10T15:36:16;38.33;;;17.50;;
60243;SDS011;46106;51.468;5.814;2023-05-10T15:38:43;33.45;;;19.33;;
60243;SDS011;46106;51.468;5.814;2023-05-10T15:41:08;38.28;;;21.40;;
60243;SDS011;46106;51.468;5.814;2023-05-10T15:43:34;38.33;;;21.65;;